F/V Oceanis — FHLH — position and weather

sailwx.info

Track history (hours):
 
Tides and Currents Weather Stations Pressure Air Temp Water Temp Dewpoint Dewpoint Depression Visibility Wind Speed Wind Dir Waves Ship Positions

F/V Oceanis

Last reported at 2016-Feb-05 15:33 UTC. Time now 2016-Feb-07 01:16 UTC.
Position N 44°37' W 001°21'.

Length 16 m.

Type: Other ship. MMSI: 228385000.

Date/timePositionNaut miles runAvg speedWind from/ knotsBaromVisibWave heightAir tempDewpointWater temp
2016-Feb-05 15:33N 44°37' W 001°21'5 5.4
2016-Feb-05 14:33N 44°38' W 001°14'4 0.1
2016-Feb-03 19:16N 44°39' W 001°09'0 0.0
2016-Feb-03 13:24N 44°39' W 001°09'0 0.0
2016-Feb-03 12:20N 44°39' W 001°09'1 1.1
2016-Feb-03 11:34N 44°40' W 001°09'6 6.5
2016-Feb-03 10:33N 44°35' W 001°15'3 3.4
2016-Feb-03 09:33N 44°34' W 001°20'1 0.8
2016-Feb-03 08:34N 44°34' W 001°19'3 2.6
2016-Feb-03 07:33N 44°36' W 001°21'5 5.0
2016-Feb-03 06:34N 44°40' W 001°24'2 2.1
2016-Feb-03 05:30N 44°42' W 001°25'1 0.2
2016-Feb-02 23:29N 44°44' W 001°26'0 0.0
2016-Feb-02 22:28N 44°44' W 001°26'0 0.0
2016-Feb-02 21:27N 44°44' W 001°26'0 0.0
2016-Feb-02 20:31N 44°44' W 001°26'0 0.0
2016-Feb-02 19:32N 44°44' W 001°26'0 0.0
2016-Feb-02 18:30N 44°44' W 001°26'2 1.6
2016-Feb-02 17:17N 44°42' W 001°25'1 0.7
2016-Feb-02 16:10N 44°43' W 001°26'2 3.4
2016-Feb-02 15:30N 44°44' W 001°24'  
Track history (hours):
 
Tides and Currents Weather Stations Pressure Air Temp Water Temp Dewpoint Dewpoint Depression Visibility Wind Speed Wind Dir Waves Ship Positions

F/V Oceanis

Last reported at 2016-Feb-05 15:33 UTC. Time now 2016-Feb-07 01:16 UTC.
Position N 44°37' W 001°21'.

Length 16 m.

Type: Other ship. MMSI: 228385000.

Date/timePositionNaut miles runAvg speedWind from/ knotsBaromVisibWave heightAir tempDewpointWater temp
2016-Feb-05 15:33N 44°37' W 001°21'5 5.4
2016-Feb-05 14:33N 44°38' W 001°14'4 0.1
2016-Feb-03 19:16N 44°39' W 001°09'0 0.0
2016-Feb-03 13:24N 44°39' W 001°09'0 0.0
2016-Feb-03 12:20N 44°39' W 001°09'1 1.1
2016-Feb-03 11:34N 44°40' W 001°09'6 6.5
2016-Feb-03 10:33N 44°35' W 001°15'3 3.4
2016-Feb-03 09:33N 44°34' W 001°20'1 0.8
2016-Feb-03 08:34N 44°34' W 001°19'3 2.6
2016-Feb-03 07:33N 44°36' W 001°21'5 5.0
2016-Feb-03 06:34N 44°40' W 001°24'2 2.1
2016-Feb-03 05:30N 44°42' W 001°25'1 0.2
2016-Feb-02 23:29N 44°44' W 001°26'0 0.0
2016-Feb-02 22:28N 44°44' W 001°26'0 0.0
2016-Feb-02 21:27N 44°44' W 001°26'0 0.0
2016-Feb-02 20:31N 44°44' W 001°26'0 0.0
2016-Feb-02 19:32N 44°44' W 001°26'0 0.0
2016-Feb-02 18:30N 44°44' W 001°26'2 1.6
2016-Feb-02 17:17N 44°42' W 001°25'1 0.7
2016-Feb-02 16:10N 44°43' W 001°26'2 3.4
2016-Feb-02 15:30N 44°44' W 001°24'  

Dump ship's entire track history